Time;durP1;ratioP1;P1;durP2;ratioP2;P2;SDS_P1;SDS_P2;PMS_P1;PMS_P2;Temp;Humidity;BMP_temperature;BMP_pressure;BME280_temperature;BME280_humidity;BME280_pressure;Samples;Min_cycle;Max_cycle;Signal;HPM_P1;HPM_P2
2024/01/18 00:01:13;;;;;;;30.00;27.35;;;;;;;;;;4213611;28;20048;-59
2024/01/18 00:03:15;;;;;;;29.48;27.00;;;;;;;;;;4213379;28;20044;-59
2024/01/18 00:05:17;;;;;;;30.77;27.77;;;;;;;;;;4213649;28;20040;-60
2024/01/18 00:07:19;;;;;;;29.60;27.58;;;;;;;;;;4213552;28;20053;-59
2024/01/18 00:09:22;;;;;;;29.35;26.35;;;;;;;;;;4214030;28;20048;-59
2024/01/18 00:11:25;;;;;;;25.65;23.98;;;;;;;;;;4214670;28;20097;-59
2024/01/18 00:13:27;;;;;;;26.98;24.73;;;;;;;;;;4214767;28;20066;-59
2024/01/18 00:15:28;;;;;;;27.45;24.98;;;;;;;;;;4214785;28;20043;-59
2024/01/18 00:17:30;;;;;;;28.60;26.15;;;;;;;;;;4215294;28;20042;-59
2024/01/18 00:19:34;;;;;;;30.60;27.55;;;;;;;;;;4214934;28;20036;-59
2024/01/18 00:21:38;;;;;;;25.90;23.90;;;;;;;;;;4214269;28;20402;-58
2024/01/18 00:23:40;;;;;;;28.83;26.00;;;;;;;;;;4214587;28;20512;-59
2024/01/18 00:25:42;;;;;;;27.98;25.80;;;;;;;;;;4215001;28;20040;-59
2024/01/18 00:27:43;;;;;;;29.60;27.13;;;;;;;;;;4213204;28;20060;-59
2024/01/18 00:29:45;;;;;;;28.15;26.10;;;;;;;;;;4221937;28;20495;-60
2024/01/18 00:31:47;;;;;;;31.80;26.80;;;;;;;;;;4231687;28;20122;-59
2024/01/18 00:33:48;;;;;;;26.97;24.47;;;;;;;;;;4231486;28;20441;-59
2024/01/18 00:35:50;;;;;;;30.95;26.33;;;;;;;;;;4221594;27;20029;-59
2024/01/18 00:37:52;;;;;;;29.17;23.00;;;;;;;;;;4213358;28;20040;-59
2024/01/18 00:39:54;;;;;;;24.85;23.15;;;;;;;;;;4214569;28;20123;-59
2024/01/18 00:41:56;;;;;;;29.60;26.48;;;;;;;;;;4213184;28;20487;-59
2024/01/18 00:43:58;;;;;;;29.88;26.65;;;;;;;;;;4214908;28;20039;-60
2024/01/18 00:46:04;;;;;;;28.30;25.90;;;;;;;;;;4214596;28;20032;-61
2024/01/18 00:48:05;;;;;;;26.73;24.52;;;;;;;;;;4214394;28;20543;-61
2024/01/18 00:50:08;;;;;;;28.65;26.15;;;;;;;;;;4214460;28;20044;-61
2024/01/18 00:52:09;;;;;;;29.00;26.48;;;;;;;;;;4214636;28;20597;-61
2024/01/18 00:54:11;;;;;;;29.13;26.30;;;;;;;;;;4214522;28;20040;-61
2024/01/18 00:56:13;;;;;;;26.85;25.40;;;;;;;;;;4214190;28;20785;-61
2024/01/18 00:58:14;;;;;;;29.70;25.50;;;;;;;;;;4214165;28;20097;-61
2024/01/18 01:00:16;;;;;;;28.70;26.57;;;;;;;;;;4214129;28;20374;-61
2024/01/18 01:02:18;;;;;;;28.35;25.88;;;;;;;;;;4214195;28;20288;-61
2024/01/18 01:04:19;;;;;;;29.88;26.88;;;;;;;;;;4214065;28;20044;-61
2024/01/18 01:06:21;;;;;;;34.15;25.77;;;;;;;;;;4214307;28;20040;-61
2024/01/18 01:08:23;;;;;;;28.13;25.80;;;;;;;;;;4214278;28;20044;-61
2024/01/18 01:10:24;;;;;;;28.73;26.15;;;;;;;;;;4214350;28;20051;-62
2024/01/18 01:12:26;;;;;;;26.50;24.20;;;;;;;;;;4214239;28;20032;-61
2024/01/18 01:14:28;;;;;;;32.13;26.55;;;;;;;;;;4214007;28;20783;-62
2024/01/18 01:16:30;;;;;;;28.05;25.25;;;;;;;;;;4214361;28;20123;-62
2024/01/18 01:18:31;;;;;;;28.35;25.60;;;;;;;;;;4214075;28;20043;-61
2024/01/18 01:20:33;;;;;;;29.73;26.75;;;;;;;;;;4214214;28;20098;-62
2024/01/18 01:22:35;;;;;;;27.85;25.58;;;;;;;;;;4213948;28;20135;-61
2024/01/18 01:24:38;;;;;;;31.67;24.70;;;;;;;;;;4214273;28;20098;-62
2024/01/18 01:26:40;;;;;;;26.70;24.48;;;;;;;;;;4214182;28;20040;-62
2024/01/18 01:28:42;;;;;;;29.70;26.50;;;;;;;;;;4214027;28;20101;-62
2024/01/18 01:30:44;;;;;;;27.50;24.80;;;;;;;;;;4229813;28;20096;-62
2024/01/18 01:32:46;;;;;;;28.90;26.27;;;;;;;;;;4213657;28;20085;-61
2024/01/18 01:34:47;;;;;;;28.58;26.02;;;;;;;;;;4214005;28;20036;-61
2024/01/18 01:36:49;;;;;;;28.63;25.63;;;;;;;;;;4213953;28;20044;-61
2024/01/18 01:38:51;;;;;;;27.95;25.92;;;;;;;;;;4213920;28;20042;-61
2024/01/18 01:40:52;;;;;;;29.30;26.50;;;;;;;;;;4213849;28;20042;-61
2024/01/18 01:42:54;;;;;;;28.85;26.40;;;;;;;;;;4213988;28;20313;-61
2024/01/18 01:44:56;;;;;;;30.00;26.80;;;;;;;;;;4212749;28;20032;-62
2024/01/18 01:47:00;;;;;;;28.13;25.58;;;;;;;;;;4213997;28;20339;-61
2024/01/18 01:49:02;;;;;;;28.70;25.93;;;;;;;;;;4214091;28;20447;-62
2024/01/18 01:51:04;;;;;;;31.65;26.23;;;;;;;;;;4213902;28;20718;-62
2024/01/18 01:53:07;;;;;;;28.73;25.83;;;;;;;;;;4214071;28;20047;-61
2024/01/18 01:55:10;;;;;;;28.95;26.67;;;;;;;;;;4214359;28;20284;-61
2024/01/18 01:57:16;;;;;;;33.10;26.90;;;;;;;;;;4213808;28;20036;-61
2024/01/18 01:59:21;;;;;;;28.25;25.98;;;;;;;;;;4213974;28;20054;-61
2024/01/18 02:03:31;;;;;;;29.35;26.55;;;;;;;;;;4228982;28;20069;-58
2024/01/18 02:05:33;;;;;;;28.67;26.00;;;;;;;;;;4230685;28;20119;-59
2024/01/18 02:07:38;;;;;;;28.73;25.83;;;;;;;;;;4230470;28;20364;-59
2024/01/18 02:09:40;;;;;;;31.45;28.65;;;;;;;;;;4230369;28;20123;-59
2024/01/18 02:11:42;;;;;;;30.23;27.15;;;;;;;;;;4233229;28;20044;-59
2024/01/18 02:13:44;;;;;;;27.50;25.30;;;;;;;;;;4234098;28;20043;-59
2024/01/18 02:15:46;;;;;;;29.33;26.77;;;;;;;;;;4233796;28;20032;-59
2024/01/18 02:17:48;;;;;;;28.42;26.17;;;;;;;;;;4233726;28;20371;-59
2024/01/18 02:19:49;;;;;;;28.07;25.10;;;;;;;;;;4233552;28;20035;-59
2024/01/18 02:21:51;;;;;;;28.13;25.50;;;;;;;;;;4233530;28;20703;-59
2024/01/18 02:23:57;;;;;;;28.93;26.07;;;;;;;;;;4233476;28;20285;-59
2024/01/18 02:25:59;;;;;;;27.65;24.83;;;;;;;;;;4233497;28;20293;-59
2024/01/18 02:28:01;;;;;;;27.33;25.20;;;;;;;;;;4233167;28;20511;-59
2024/01/18 02:30:03;;;;;;;26.88;24.63;;;;;;;;;;4233277;28;20122;-59
2024/01/18 02:32:04;;;;;;;30.75;27.55;;;;;;;;;;4233467;28;20042;-59
2024/01/18 02:34:16;;;;;;;29.17;26.40;;;;;;;;;;4233284;28;20498;-59
2024/01/18 02:36:21;;;;;;;27.90;25.75;;;;;;;;;;4233367;28;20036;-59
2024/01/18 02:38:22;;;;;;;28.70;26.13;;;;;;;;;;4233580;28;20036;-59
2024/01/18 02:40:24;;;;;;;32.85;26.25;;;;;;;;;;4233059;28;20084;-59
2024/01/18 02:42:25;;;;;;;27.27;24.60;;;;;;;;;;4233388;28;20082;-59
2024/01/18 02:44:27;;;;;;;28.17;24.70;;;;;;;;;;4233396;28;20043;-59
2024/01/18 02:46:32;;;;;;;28.17;25.75;;;;;;;;;;4233165;28;20317;-59
2024/01/18 02:48:34;;;;;;;29.17;26.42;;;;;;;;;;4233319;28;20044;-59
2024/01/18 02:50:39;;;;;;;26.92;25.10;;;;;;;;;;4232167;28;20075;-58
2024/01/18 02:52:41;;;;;;;27.90;25.08;;;;;;;;;;4233287;28;20043;-59
2024/01/18 02:54:42;;;;;;;26.65;24.67;;;;;;;;;;4233076;28;20031;-59
2024/01/18 02:56:44;;;;;;;25.98;24.08;;;;;;;;;;4233163;28;20074;-58
2024/01/18 02:58:45;;;;;;;28.40;26.00;;;;;;;;;;4233209;28;20031;-59
2024/01/18 03:00:47;;;;;;;27.93;25.40;;;;;;;;;;4232584;28;20552;-58
2024/01/18 03:02:49;;;;;;;28.65;26.05;;;;;;;;;;4232772;28;20044;-58
2024/01/18 03:04:50;;;;;;;27.55;24.70;;;;;;;;;;4233169;28;20042;-59
2024/01/18 03:06:52;;;;;;;28.50;26.00;;;;;;;;;;4232698;28;20123;-59
2024/01/18 03:08:54;;;;;;;29.00;26.03;;;;;;;;;;4232647;28;20281;-58
2024/01/18 03:10:55;;;;;;;28.88;26.20;;;;;;;;;;4232673;28;20081;-58
2024/01/18 03:12:57;;;;;;;29.23;26.33;;;;;;;;;;4232703;28;20517;-58
2024/01/18 03:14:59;;;;;;;28.60;26.13;;;;;;;;;;4232905;28;20085;-58
2024/01/18 03:17:00;;;;;;;30.92;26.70;;;;;;;;;;4232711;28;20406;-59
2024/01/18 03:19:02;;;;;;;29.33;26.73;;;;;;;;;;4232896;28;20516;-59
2024/01/18 03:21:04;;;;;;;31.13;28.15;;;;;;;;;;4232214;28;20039;-58
2024/01/18 03:23:06;;;;;;;31.50;26.27;;;;;;;;;;4231674;28;20086;-59
2024/01/18 03:25:08;;;;;;;26.80;24.50;;;;;;;;;;4241961;27;20040;-58
2024/01/18 03:27:09;;;;;;;26.05;24.65;;;;;;;;;;4249645;27;20039;-59
2024/01/18 03:29:11;;;;;;;27.75;25.38;;;;;;;;;;4241085;27;20138;-59
2024/01/18 03:31:13;;;;;;;29.43;26.47;;;;;;;;;;4215602;28;20060;-59
2024/01/18 03:33:14;;;;;;;28.53;25.67;;;;;;;;;;4215472;28;20679;-58
2024/01/18 03:35:16;;;;;;;30.17;26.58;;;;;;;;;;4215732;28;20036;-59
2024/01/18 03:37:18;;;;;;;27.13;24.53;;;;;;;;;;4218069;28;20119;-59
2024/01/18 03:39:19;;;;;;;27.05;24.85;;;;;;;;;;4232337;28;20100;-58
2024/01/18 03:41:21;;;;;;;33.90;27.42;;;;;;;;;;4232435;28;20042;-58
2024/01/18 03:43:22;;;;;;;27.45;24.75;;;;;;;;;;4232307;28;20475;-58
2024/01/18 03:45:24;;;;;;;30.20;26.08;;;;;;;;;;4232188;28;20040;-58
2024/01/18 03:47:26;;;;;;;33.13;26.83;;;;;;;;;;4232034;28;20039;-59
2024/01/18 03:49:27;;;;;;;27.40;25.13;;;;;;;;;;4232122;28;20544;-59
2024/01/18 03:51:29;;;;;;;28.38;25.00;;;;;;;;;;4232340;28;20330;-58
2024/01/18 03:53:31;;;;;;;30.00;26.83;;;;;;;;;;4232079;28;20063;-59
2024/01/18 03:55:32;;;;;;;31.93;27.77;;;;;;;;;;4232240;28;20044;-59
2024/01/18 03:57:35;;;;;;;39.08;28.08;;;;;;;;;;4213882;28;20073;-59
2024/01/18 03:59:37;;;;;;;30.85;27.45;;;;;;;;;;4218683;28;20128;-59
2024/01/18 04:01:39;;;;;;;29.67;26.00;;;;;;;;;;4213160;28;20481;-60
2024/01/18 04:03:42;;;;;;;36.53;27.58;;;;;;;;;;4230436;28;20039;-59
2024/01/18 04:05:44;;;;;;;39.65;26.85;;;;;;;;;;4230105;28;20044;-59
2024/01/18 04:07:46;;;;;;;29.25;26.45;;;;;;;;;;4230381;28;20088;-59
2024/01/18 04:09:47;;;;;;;35.10;27.00;;;;;;;;;;4228537;28;20510;-60
2024/01/18 04:11:49;;;;;;;30.60;27.15;;;;;;;;;;4230429;27;20506;-59
2024/01/18 04:13:51;;;;;;;30.38;27.33;;;;;;;;;;4230245;28;20039;-59
2024/01/18 04:15:52;;;;;;;31.83;27.67;;;;;;;;;;4230259;28;20075;-59
2024/01/18 04:17:54;;;;;;;30.92;28.02;;;;;;;;;;4231434;28;20600;-58
2024/01/18 04:19:56;;;;;;;30.50;26.88;;;;;;;;;;4231493;28;20036;-59
2024/01/18 04:21:57;;;;;;;32.30;26.23;;;;;;;;;;4245014;27;20035;-59
2024/01/18 04:23:59;;;;;;;30.60;27.45;;;;;;;;;;4248854;27;20050;-60
2024/01/18 04:26:01;;;;;;;31.05;25.88;;;;;;;;;;4248757;27;20043;-59
2024/01/18 04:28:03;;;;;;;30.30;27.17;;;;;;;;;;4248810;27;20055;-59
2024/01/18 04:30:05;;;;;;;29.40;26.67;;;;;;;;;;4224910;27;20059;-59
2024/01/18 04:32:07;;;;;;;34.42;26.23;;;;;;;;;;4214559;28;20560;-59
2024/01/18 04:34:09;;;;;;;29.63;26.73;;;;;;;;;;4221419;28;20027;-58
2024/01/18 04:36:11;;;;;;;36.43;27.90;;;;;;;;;;4231799;28;20043;-60
2024/01/18 04:38:13;;;;;;;33.08;26.20;;;;;;;;;;4231700;28;20096;-59
2024/01/18 04:40:15;;;;;;;29.25;26.52;;;;;;;;;;4231650;28;20120;-59
2024/01/18 04:42:16;;;;;;;31.08;28.25;;;;;;;;;;4231378;28;20039;-59
2024/01/18 04:44:18;;;;;;;29.83;27.05;;;;;;;;;;4230450;28;20040;-59
2024/01/18 04:46:20;;;;;;;30.03;27.00;;;;;;;;;;4231159;28;20092;-59
2024/01/18 04:48:22;;;;;;;27.17;24.48;;;;;;;;;;4231255;28;20047;-59
2024/01/18 04:50:27;;;;;;;;;;;;;;;;;;4231837;28;20131;-59
2024/01/18 04:52:28;;;;;;;28.65;25.75;;;;;;;;;;4231387;28;19923;-59
2024/01/18 04:54:32;;;;;;;30.23;27.30;;;;;;;;;;4231141;28;20525;-59
2024/01/18 04:56:35;;;;;;;28.42;25.60;;;;;;;;;;4231137;28;20094;-59
2024/01/18 04:58:37;;;;;;;37.47;27.58;;;;;;;;;;4231321;28;20047;-59
2024/01/18 05:00:41;;;;;;;29.05;26.00;;;;;;;;;;4230883;28;20524;-59
2024/01/18 05:02:44;;;;;;;34.67;25.60;;;;;;;;;;4221227;28;20052;-59
2024/01/18 05:04:45;;;;;;;34.85;26.50;;;;;;;;;;4214732;28;20051;-59
2024/01/18 05:06:47;;;;;;;30.63;28.02;;;;;;;;;;4213959;28;20161;-59
2024/01/18 05:08:49;;;;;;;32.30;28.13;;;;;;;;;;4220771;28;20067;-58
2024/01/18 05:10:50;;;;;;;32.50;28.67;;;;;;;;;;4231138;28;20043;-59
2024/01/18 05:12:52;;;;;;;36.10;26.67;;;;;;;;;;4228158;28;20040;-59
2024/01/18 05:14:54;;;;;;;30.63;27.58;;;;;;;;;;4230840;28;20051;-59
2024/01/18 05:17:03;;;;;;;29.08;26.55;;;;;;;;;;4230846;28;20543;-59
2024/01/18 05:19:06;;;;;;;29.77;26.83;;;;;;;;;;4230872;28;20040;-58
2024/01/18 05:21:09;;;;;;;29.67;26.75;;;;;;;;;;4229990;28;20494;-58
2024/01/18 05:23:11;;;;;;;29.42;26.90;;;;;;;;;;4231065;28;20035;-59
2024/01/18 05:25:13;;;;;;;31.08;27.75;;;;;;;;;;4230810;28;20047;-58
2024/01/18 05:27:15;;;;;;;29.35;26.70;;;;;;;;;;4230820;28;20043;-59
2024/01/18 05:29:17;;;;;;;27.73;25.48;;;;;;;;;;4227098;28;20454;-59
2024/01/18 05:31:18;;;;;;;27.70;24.80;;;;;;;;;;4229116;28;20491;-59
2024/01/18 05:33:20;;;;;;;30.27;27.50;;;;;;;;;;4230907;28;20039;-59
2024/01/18 05:35:22;;;;;;;31.00;28.23;;;;;;;;;;4230957;28;20474;-59
2024/01/18 05:37:24;;;;;;;29.83;26.93;;;;;;;;;;4231036;28;20043;-58
2024/01/18 05:39:25;;;;;;;31.23;26.63;;;;;;;;;;4223187;28;20442;-59
2024/01/18 05:41:29;;;;;;;27.98;25.67;;;;;;;;;;4230702;28;20036;-58
2024/01/18 05:43:30;;;;;;;28.07;25.83;;;;;;;;;;4230631;28;20105;-59
2024/01/18 05:45:32;;;;;;;31.00;27.27;;;;;;;;;;4233350;28;20088;-58
2024/01/18 05:47:34;;;;;;;28.10;25.20;;;;;;;;;;4232314;28;20048;-59
2024/01/18 05:49:35;;;;;;;29.55;27.10;;;;;;;;;;4234324;28;20281;-58
2024/01/18 05:51:37;;;;;;;29.08;26.48;;;;;;;;;;4233928;28;20040;-58
2024/01/18 05:53:43;;;;;;;29.48;26.58;;;;;;;;;;4234291;28;20039;-59
2024/01/18 05:55:45;;;;;;;29.60;26.63;;;;;;;;;;4233878;28;20032;-59
2024/01/18 05:57:47;;;;;;;29.45;26.60;;;;;;;;;;4234300;28;20277;-59
2024/01/18 05:59:49;;;;;;;30.80;27.73;;;;;;;;;;4233939;28;20092;-59
2024/01/18 06:01:50;;;;;;;32.83;27.93;;;;;;;;;;4232148;28;20040;-58
2024/01/18 06:03:52;;;;;;;31.43;27.63;;;;;;;;;;4228214;28;20291;-59
2024/01/18 06:05:54;;;;;;;29.77;26.85;;;;;;;;;;4227304;28;20289;-59
2024/01/18 06:07:56;;;;;;;30.65;27.70;;;;;;;;;;4233754;28;20047;-59
2024/01/18 06:09:59;;;;;;;34.97;28.97;;;;;;;;;;4233485;28;20078;-58
2024/01/18 06:12:01;;;;;;;31.90;29.00;;;;;;;;;;4232593;28;20035;-59
2024/01/18 06:14:02;;;;;;;29.50;26.52;;;;;;;;;;4242835;27;20043;-59
2024/01/18 06:16:04;;;;;;;30.37;27.57;;;;;;;;;;4250718;27;20039;-59
2024/01/18 06:18:06;;;;;;;30.35;26.95;;;;;;;;;;4249039;27;20039;-61
2024/01/18 06:20:08;;;;;;;30.38;28.00;;;;;;;;;;4249868;27;20039;-61
2024/01/18 06:22:10;;;;;;;30.42;27.23;;;;;;;;;;4234724;27;20032;-61
2024/01/18 06:24:12;;;;;;;30.02;27.20;;;;;;;;;;4233765;28;20126;-61
2024/01/18 06:26:15;;;;;;;36.80;26.52;;;;;;;;;;4233530;28;20134;-61
2024/01/18 06:28:16;;;;;;;29.57;26.57;;;;;;;;;;4232024;28;20093;-61
2024/01/18 06:30:18;;;;;;;33.65;28.20;;;;;;;;;;4221876;28;20351;-61
2024/01/18 06:32:20;;;;;;;28.45;25.92;;;;;;;;;;4215428;28;20044;-61
2024/01/18 06:34:22;;;;;;;31.52;28.85;;;;;;;;;;4216705;28;20131;-60
2024/01/18 06:36:24;;;;;;;31.75;28.52;;;;;;;;;;4216466;28;20036;-61
2024/01/18 06:38:26;;;;;;;32.03;28.90;;;;;;;;;;4216442;28;20406;-61
2024/01/18 06:40:27;;;;;;;29.63;27.47;;;;;;;;;;4216156;28;20488;-61
2024/01/18 06:42:29;;;;;;;30.77;28.20;;;;;;;;;;4216198;28;20293;-60
2024/01/18 06:44:30;;;;;;;29.33;26.40;;;;;;;;;;4216638;28;20046;-60
2024/01/18 06:46:32;;;;;;;29.33;27.10;;;;;;;;;;4225491;28;20427;-61
2024/01/18 06:48:34;;;;;;;29.42;26.95;;;;;;;;;;4233437;28;20035;-60
2024/01/18 06:50:36;;;;;;;29.67;27.05;;;;;;;;;;4233385;28;20046;-61
2024/01/18 06:52:37;;;;;;;28.98;26.42;;;;;;;;;;4231789;28;20079;-61
2024/01/18 06:54:42;;;;;;;28.67;26.97;;;;;;;;;;4233128;28;20039;-61
2024/01/18 06:56:47;;;;;;;28.40;25.65;;;;;;;;;;4232553;27;20277;-61
2024/01/18 06:58:48;;;;;;;29.05;26.60;;;;;;;;;;4232971;28;20044;-61
2024/01/18 07:00:50;;;;;;;30.58;26.70;;;;;;;;;;4232594;28;20523;-61
2024/01/18 07:02:52;;;;;;;27.42;25.35;;;;;;;;;;4222170;28;20494;-61
2024/01/18 07:04:54;;;;;;;30.38;27.20;;;;;;;;;;4216192;28;20040;-61
2024/01/18 07:06:56;;;;;;;30.25;27.17;;;;;;;;;;4215810;28;20085;-62
2024/01/18 07:08:58;;;;;;;30.27;27.43;;;;;;;;;;4224129;28;20047;-61
2024/01/18 07:11:01;;;;;;;30.10;27.70;;;;;;;;;;4232442;28;20332;-61
2024/01/18 07:13:02;;;;;;;28.70;25.83;;;;;;;;;;4232719;27;20039;-61
2024/01/18 07:15:07;;;;;;;30.23;26.90;;;;;;;;;;4232653;28;20036;-61
2024/01/18 07:17:10;;;;;;;29.63;27.05;;;;;;;;;;4232496;28;20277;-61
2024/01/18 07:19:12;;;;;;;30.83;26.92;;;;;;;;;;4232622;28;20047;-61
2024/01/18 07:21:14;;;;;;;31.15;27.95;;;;;;;;;;4232405;28;20063;-61
2024/01/18 07:23:17;;;;;;;;;;;;;;;;;;4233092;28;20123;-60
2024/01/18 07:25:19;;;;;;;30.90;28.08;;;;;;;;;;4231395;28;19969;-61
2024/01/18 07:27:21;;;;;;;31.50;28.25;;;;;;;;;;4232604;28;20039;-61
2024/01/18 07:29:22;;;;;;;29.48;26.40;;;;;;;;;;4232415;28;20512;-61
2024/01/18 07:31:24;;;;;;;28.40;25.92;;;;;;;;;;4232607;28;20039;-61
2024/01/18 07:33:25;;;;;;;30.20;27.33;;;;;;;;;;4232354;28;20044;-60
2024/01/18 07:35:27;;;;;;;30.85;27.52;;;;;;;;;;4232302;28;20483;-60
2024/01/18 07:37:29;;;;;;;30.48;28.10;;;;;;;;;;4232652;28;20035;-61
2024/01/18 07:39:31;;;;;;;28.73;25.83;;;;;;;;;;4232304;28;20112;-61
2024/01/18 07:41:33;;;;;;;30.23;27.05;;;;;;;;;;4232475;28;20653;-61
2024/01/18 07:43:34;;;;;;;27.87;24.67;;;;;;;;;;4232601;28;20092;-61
2024/01/18 07:45:36;;;;;;;29.00;26.35;;;;;;;;;;4231034;28;20415;-61
2024/01/18 07:47:38;;;;;;;30.47;27.53;;;;;;;;;;4215398;28;20040;-61
2024/01/18 07:49:46;;;;;;;28.23;26.05;;;;;;;;;;4230410;28;20495;-60
2024/01/18 07:51:51;;;;;;;29.02;26.60;;;;;;;;;;4232118;28;20478;-61
2024/01/18 07:53:53;;;;;;;28.83;26.10;;;;;;;;;;4232371;28;20376;-61
2024/01/18 07:55:54;;;;;;;27.65;25.25;;;;;;;;;;4232060;28;20043;-61
2024/01/18 07:57:56;;;;;;;28.53;26.17;;;;;;;;;;4232246;28;20040;-62
2024/01/18 07:59:58;;;;;;;27.55;25.25;;;;;;;;;;4232269;28;20035;-61
2024/01/18 08:01:59;;;;;;;30.38;27.27;;;;;;;;;;4231558;28;20055;-62
2024/01/18 08:04:01;;;;;;;30.67;25.92;;;;;;;;;;4231938;28;20538;-62
2024/01/18 08:06:03;;;;;;;31.17;28.10;;;;;;;;;;4238484;27;20367;-62
2024/01/18 08:08:05;;;;;;;28.25;25.83;;;;;;;;;;4246829;27;20039;-61
2024/01/18 08:10:08;;;;;;;31.02;28.00;;;;;;;;;;4231864;28;20125;-61
2024/01/18 08:12:10;;;;;;;27.98;25.73;;;;;;;;;;4231923;28;20111;-61
2024/01/18 08:14:12;;;;;;;27.33;24.65;;;;;;;;;;4226086;28;20040;-62
2024/01/18 08:16:18;;;;;;;28.02;25.88;;;;;;;;;;4214889;28;20036;-61
2024/01/18 08:18:20;;;;;;;29.30;26.23;;;;;;;;;;4215114;28;20096;-62
2024/01/18 08:20:21;;;;;;;27.52;25.73;;;;;;;;;;4231716;28;20398;-62
2024/01/18 08:22:23;;;;;;;28.00;25.50;;;;;;;;;;4232020;28;20101;-62
2024/01/18 08:24:25;;;;;;;27.42;25.02;;;;;;;;;;4231718;28;20035;-62
2024/01/18 08:26:28;;;;;;;36.25;25.95;;;;;;;;;;4231518;28;20031;-61
2024/01/18 08:28:30;;;;;;;26.10;23.50;;;;;;;;;;4232087;28;20042;-61
2024/01/18 08:30:31;;;;;;;27.83;24.97;;;;;;;;;;4231269;28;20043;-61
2024/01/18 08:32:34;;;;;;;27.95;25.55;;;;;;;;;;4231657;28;20286;-62
2024/01/18 08:34:36;;;;;;;29.95;26.92;;;;;;;;;;4231402;28;20038;-62
2024/01/18 08:36:38;;;;;;;28.57;26.23;;;;;;;;;;4231505;28;20040;-61
2024/01/18 08:38:39;;;;;;;28.70;26.35;;;;;;;;;;4231406;28;20036;-61
2024/01/18 08:40:41;;;;;;;29.80;26.53;;;;;;;;;;4231279;28;20075;-61
2024/01/18 08:42:45;;;;;;;30.45;27.25;;;;;;;;;;4231303;28;20787;-62
2024/01/18 08:44:47;;;;;;;30.67;27.42;;;;;;;;;;4225615;28;20114;-61
2024/01/18 08:46:49;;;;;;;29.57;26.20;;;;;;;;;;4225765;28;20089;-61
2024/01/18 08:48:51;;;;;;;29.25;26.67;;;;;;;;;;4231144;28;20590;-61
2024/01/18 08:50:52;;;;;;;31.55;28.23;;;;;;;;;;4229991;28;20384;-61
2024/01/18 08:52:56;;;;;;;29.77;26.83;;;;;;;;;;4231463;28;20515;-61
2024/01/18 08:54:58;;;;;;;29.63;27.07;;;;;;;;;;4230989;28;20036;-61
2024/01/18 08:56:59;;;;;;;28.07;24.83;;;;;;;;;;4231175;28;20047;-61
2024/01/18 08:59:01;;;;;;;30.50;27.83;;;;;;;;;;4231358;28;20341;-61
2024/01/18 09:01:02;;;;;;;30.53;27.50;;;;;;;;;;4230788;28;20110;-61
2024/01/18 09:03:05;;;;;;;31.73;25.95;;;;;;;;;;4231440;28;20289;-61
2024/01/18 09:05:07;;;;;;;29.83;26.70;;;;;;;;;;4231036;28;20039;-62
2024/01/18 09:07:08;;;;;;;33.33;27.38;;;;;;;;;;4230951;28;20440;-60
2024/01/18 09:09:11;;;;;;;31.90;26.60;;;;;;;;;;4231178;28;20039;-62
2024/01/18 09:11:13;;;;;;;29.40;26.58;;;;;;;;;;4218876;28;20052;-61
2024/01/18 09:13:15;;;;;;;29.70;27.27;;;;;;;;;;4214312;28;20426;-61
2024/01/18 09:15:20;;;;;;;27.75;25.25;;;;;;;;;;4220938;28;20067;-61
2024/01/18 09:17:22;;;;;;;32.17;25.88;;;;;;;;;;4230820;28;20455;-61
2024/01/18 09:19:24;;;;;;;29.35;26.73;;;;;;;;;;4230756;28;20069;-61
2024/01/18 09:21:26;;;;;;;29.05;26.55;;;;;;;;;;4230712;28;20476;-61
2024/01/18 09:23:27;;;;;;;31.05;27.70;;;;;;;;;;4230970;28;20042;-61
2024/01/18 09:25:29;;;;;;;30.33;27.27;;;;;;;;;;4230667;28;20036;-61
2024/01/18 09:27:31;;;;;;;27.73;24.95;;;;;;;;;;4231035;28;20039;-61
2024/01/18 09:29:34;;;;;;;30.30;26.90;;;;;;;;;;4230779;28;20051;-61
2024/01/18 09:31:35;;;;;;;31.90;28.33;;;;;;;;;;4230677;28;20035;-61
2024/01/18 09:33:43;;;;;;;29.00;26.45;;;;;;;;;;4230787;28;20067;-61
2024/01/18 09:35:45;;;;;;;31.27;27.88;;;;;;;;;;4230836;28;20038;-61
2024/01/18 09:37:47;;;;;;;30.58;27.60;;;;;;;;;;4230685;28;20039;-62
2024/01/18 09:39:48;;;;;;;31.80;27.70;;;;;;;;;;4230662;28;20119;-61
2024/01/18 09:41:51;;;;;;;31.25;28.13;;;;;;;;;;4230691;28;20119;-62
2024/01/18 09:43:54;;;;;;;;;;;;;;;;;;4231317;28;20127;-61
2024/01/18 09:45:55;;;;;;;;;;;;;;;;;;4231081;28;20297;-62
2024/01/18 09:47:57;;;;;;;29.55;27.10;;;;;;;;;;4230800;28;19924;-61
2024/01/18 09:49:59;;;;;;;31.43;28.27;;;;;;;;;;4230516;28;20059;-61
2024/01/18 09:52:01;;;;;;;27.50;25.17;;;;;;;;;;4230539;28;20334;-61
2024/01/18 09:54:03;;;;;;;26.75;24.70;;;;;;;;;;4230620;28;20057;-61
2024/01/18 09:56:18;;;;;;;28.07;25.40;;;;;;;;;;4230390;28;20066;-62
2024/01/18 09:58:19;;;;;;;28.42;26.05;;;;;;;;;;4230338;28;20686;-62
2024/01/18 10:00:23;;;;;;;25.63;24.07;;;;;;;;;;4230557;28;20040;-61
2024/01/18 10:02:29;;;;;;;26.25;24.10;;;;;;;;;;4230110;28;20315;-61
2024/01/18 10:04:32;;;;;;;28.45;25.58;;;;;;;;;;4230645;28;20091;-61
2024/01/18 10:06:33;;;;;;;27.30;25.38;;;;;;;;;;4225887;28;20102;-61
2024/01/18 10:08:35;;;;;;;24.90;23.50;;;;;;;;;;4218428;28;20048;-61
2024/01/18 10:10:37;;;;;;;26.67;24.88;;;;;;;;;;4230569;28;20043;-62
2024/01/18 10:12:40;;;;;;;27.63;25.17;;;;;;;;;;4230236;28;20043;-61
2024/01/18 10:14:43;;;;;;;24.52;22.25;;;;;;;;;;4230475;28;20782;-61
2024/01/18 10:16:45;;;;;;;27.85;25.08;;;;;;;;;;4230180;28;20046;-61
2024/01/18 10:18:47;;;;;;;29.57;26.47;;;;;;;;;;4229241;28;20043;-61
2024/01/18 10:20:49;;;;;;;26.83;24.25;;;;;;;;;;4230230;28;20036;-61
2024/01/18 10:22:51;;;;;;;24.55;22.98;;;;;;;;;;4230552;28;20487;-61
2024/01/18 10:24:53;;;;;;;23.88;22.17;;;;;;;;;;4230572;28;20040;-61
2024/01/18 10:27:02;;;;;;;24.83;22.85;;;;;;;;;;4230307;28;20031;-62
2024/01/18 10:29:06;;;;;;;22.25;20.45;;;;;;;;;;4230271;28;20047;-61
2024/01/18 10:31:08;;;;;;;25.00;22.95;;;;;;;;;;4230788;28;20059;-61
2024/01/18 10:33:11;;;;;;;21.98;20.35;;;;;;;;;;4233724;28;20040;-61
2024/01/18 10:35:18;;;;;;;20.35;19.10;;;;;;;;;;4233213;28;20524;-61
2024/01/18 10:37:20;;;;;;;20.75;19.23;;;;;;;;;;4233454;28;20064;-61
2024/01/18 10:39:22;;;;;;;17.90;16.93;;;;;;;;;;4233375;28;20048;-61
2024/01/18 10:41:24;;;;;;;27.52;24.70;;;;;;;;;;4233185;28;20292;-61
2024/01/18 10:43:35;;;;;;;18.65;17.45;;;;;;;;;;4233265;28;20414;-61
2024/01/18 10:45:36;;;;;;;20.33;19.00;;;;;;;;;;4231725;28;20075;-61
2024/01/18 10:47:38;;;;;;;22.10;20.45;;;;;;;;;;4227901;28;20050;-61
2024/01/18 10:49:40;;;;;;;18.58;17.63;;;;;;;;;;4222100;28;20174;-61
2024/01/18 10:51:42;;;;;;;18.63;17.80;;;;;;;;;;4219025;28;20071;-61
2024/01/18 10:53:46;;;;;;;16.88;15.98;;;;;;;;;;4227801;28;20496;-63
2024/01/18 10:55:48;;;;;;;14.27;13.60;;;;;;;;;;4221992;27;20066;-61
2024/01/18 10:57:51;;;;;;;14.40;13.88;;;;;;;;;;4218813;28;20036;-61
2024/01/18 10:59:55;;;;;;;14.70;14.10;;;;;;;;;;4227560;28;20112;-62
2024/01/18 11:02:00;;;;;;;12.70;12.18;;;;;;;;;;4216349;28;20043;-61
2024/01/18 11:04:02;;;;;;;12.27;11.63;;;;;;;;;;4222407;28;20093;-61
2024/01/18 11:06:09;;;;;;;;;;;;;;;;;;4230211;28;20035;-62
2024/01/18 11:08:12;;;;;;;13.23;12.50;;;;;;;;;;4221940;28;19962;-61
2024/01/18 11:10:13;;;;;;;;;;;;;;;;;;4230114;28;20032;-61
2024/01/18 11:12:16;;;;;;;14.68;13.98;;;;;;;;;;4226822;28;19931;-62
2024/01/18 11:14:18;;;;;;;12.38;11.98;;;;;;;;;;4223450;28;20054;-61
2024/01/18 11:16:22;;;;;;;11.93;11.32;;;;;;;;;;4223594;28;20100;-61
2024/01/18 11:18:24;;;;;;;11.15;10.85;;;;;;;;;;4220474;28;20054;-61
2024/01/18 11:20:25;;;;;;;13.10;12.13;;;;;;;;;;4225950;28;20051;-61
2024/01/18 11:22:27;;;;;;;12.98;12.50;;;;;;;;;;4230817;28;20482;-62
2024/01/18 11:24:29;;;;;;;14.77;14.10;;;;;;;;;;4232823;27;20042;-61
2024/01/18 11:26:31;;;;;;;15.85;15.02;;;;;;;;;;4222066;28;20047;-62
2024/01/18 11:28:33;;;;;;;14.82;13.73;;;;;;;;;;4220399;28;20056;-61
2024/01/18 11:30:35;;;;;;;13.35;12.65;;;;;;;;;;4217366;28;20102;-60
2024/01/18 11:32:38;;;;;;;14.20;13.35;;;;;;;;;;4215831;28;20047;-61
2024/01/18 11:34:40;;;;;;;14.38;13.48;;;;;;;;;;4214487;28;20040;-61
2024/01/18 11:36:46;;;;;;;13.30;12.90;;;;;;;;;;4218265;28;20050;-60
2024/01/18 11:38:48;;;;;;;12.80;11.88;;;;;;;;;;4219882;28;20043;-61
2024/01/18 11:40:51;;;;;;;9.80;9.27;;;;;;;;;;4219203;28;20044;-61
2024/01/18 11:42:53;;;;;;;12.45;11.35;;;;;;;;;;4221591;28;20054;-62
2024/01/18 11:44:55;;;;;;;10.95;10.55;;;;;;;;;;4222317;28;20052;-61
2024/01/18 11:46:58;;;;;;;12.55;11.85;;;;;;;;;;4227605;28;20047;-61
2024/01/18 11:48:59;;;;;;;12.25;11.73;;;;;;;;;;4223222;28;20043;-61
2024/01/18 11:51:01;;;;;;;12.90;12.32;;;;;;;;;;4229808;28;20048;-61
2024/01/18 11:53:04;;;;;;;11.60;10.88;;;;;;;;;;4231606;28;20061;-61
2024/01/18 11:55:06;;;;;;;12.57;11.50;;;;;;;;;;4228458;28;20081;-61